sensor_id;sensor_type;location;lat;lon;timestamp;P1;durP1;ratioP1;P2;durP2;ratioP2
12976;SDS011;6553;48.412;9.514;2023-06-04T00:02:05;3.65;;;3.35;;
12976;SDS011;6553;48.412;9.514;2023-06-04T00:04:31;4.15;;;3.83;;
12976;SDS011;6553;48.412;9.514;2023-06-04T00:06:56;4.15;;;3.75;;
12976;SDS011;6553;48.412;9.514;2023-06-04T00:09:22;4.00;;;3.50;;
12976;SDS011;6553;48.412;9.514;2023-06-04T00:11:48;3.90;;;3.60;;
12976;SDS011;6553;48.412;9.514;2023-06-04T00:14:14;4.00;;;3.70;;
12976;SDS011;6553;48.412;9.514;2023-06-04T00:16:40;4.13;;;3.83;;
12976;SDS011;6553;48.412;9.514;2023-06-04T00:19:06;4.28;;;3.95;;
12976;SDS011;6553;48.412;9.514;2023-06-04T00:21:32;3.90;;;3.60;;
12976;SDS011;6553;48.412;9.514;2023-06-04T00:23:58;4.00;;;3.70;;
12976;SDS011;6553;48.412;9.514;2023-06-04T00:26:25;4.07;;;3.78;;
12976;SDS011;6553;48.412;9.514;2023-06-04T00:28:51;4.40;;;4.00;;
12976;SDS011;6553;48.412;9.514;2023-06-04T00:31:17;3.75;;;3.45;;
12976;SDS011;6553;48.412;9.514;2023-06-04T00:33:42;4.15;;;3.75;;
12976;SDS011;6553;48.412;9.514;2023-06-04T00:36:08;3.88;;;3.58;;
12976;SDS011;6553;48.412;9.514;2023-06-04T00:38:34;3.50;;;3.30;;
12976;SDS011;6553;48.412;9.514;2023-06-04T00:41:00;4.15;;;3.75;;
12976;SDS011;6553;48.412;9.514;2023-06-04T00:43:25;3.53;;;3.28;;
12976;SDS011;6553;48.412;9.514;2023-06-04T00:45:52;3.67;;;3.38;;
12976;SDS011;6553;48.412;9.514;2023-06-04T00:48:19;3.75;;;3.40;;
12976;SDS011;6553;48.412;9.514;2023-06-04T00:50:46;3.28;;;3.08;;
12976;SDS011;6553;48.412;9.514;2023-06-04T00:53:13;3.53;;;3.25;;
12976;SDS011;6553;48.412;9.514;2023-06-04T00:55:39;3.80;;;3.50;;
12976;SDS011;6553;48.412;9.514;2023-06-04T00:58:06;3.95;;;3.65;;
12976;SDS011;6553;48.412;9.514;2023-06-04T01:00:34;3.35;;;3.05;;
12976;SDS011;6553;48.412;9.514;2023-06-04T01:03:04;3.65;;;3.35;;
12976;SDS011;6553;48.412;9.514;2023-06-04T01:08:38;3.55;;;3.25;;
12976;SDS011;6553;48.412;9.514;2023-06-04T01:11:07;4.03;;;3.72;;
12976;SDS011;6553;48.412;9.514;2023-06-04T01:13:33;3.42;;;3.22;;
12976;SDS011;6553;48.412;9.514;2023-06-04T01:15:59;3.50;;;3.20;;
12976;SDS011;6553;48.412;9.514;2023-06-04T01:18:28;3.53;;;3.22;;
12976;SDS011;6553;48.412;9.514;2023-06-04T01:20:59;3.20;;;2.95;;
12976;SDS011;6553;48.412;9.514;2023-06-04T01:23:33;3.65;;;3.35;;
12976;SDS011;6553;48.412;9.514;2023-06-04T01:26:12;3.28;;;2.97;;
12976;SDS011;6553;48.412;9.514;2023-06-04T01:28:38;3.65;;;3.35;;
12976;SDS011;6553;48.412;9.514;2023-06-04T01:31:04;3.30;;;3.00;;
12976;SDS011;6553;48.412;9.514;2023-06-04T01:33:34;3.50;;;3.30;;
12976;SDS011;6553;48.412;9.514;2023-06-04T01:36:00;3.40;;;3.08;;
12976;SDS011;6553;48.412;9.514;2023-06-04T01:38:27;3.53;;;3.22;;
12976;SDS011;6553;48.412;9.514;2023-06-04T01:40:53;3.20;;;2.90;;
12976;SDS011;6553;48.412;9.514;2023-06-04T01:43:26;3.67;;;3.38;;
12976;SDS011;6553;48.412;9.514;2023-06-04T01:45:53;3.63;;;3.33;;
12976;SDS011;6553;48.412;9.514;2023-06-04T01:48:19;3.50;;;3.20;;
12976;SDS011;6553;48.412;9.514;2023-06-04T01:50:45;3.08;;;2.80;;
12976;SDS011;6553;48.412;9.514;2023-06-04T01:53:11;3.00;;;2.80;;
12976;SDS011;6553;48.412;9.514;2023-06-04T01:55:36;3.28;;;3.00;;
12976;SDS011;6553;48.412;9.514;2023-06-04T01:58:02;3.60;;;3.30;;
12976;SDS011;6553;48.412;9.514;2023-06-04T02:00:28;2.92;;;2.72;;
12976;SDS011;6553;48.412;9.514;2023-06-04T02:02:54;3.17;;;2.97;;
12976;SDS011;6553;48.412;9.514;2023-06-04T02:05:21;3.03;;;2.83;;
12976;SDS011;6553;48.412;9.514;2023-06-04T02:07:47;2.90;;;2.70;;
12976;SDS011;6553;48.412;9.514;2023-06-04T02:10:16;3.00;;;2.80;;
12976;SDS011;6553;48.412;9.514;2023-06-04T02:15:25;3.50;;;3.20;;
12976;SDS011;6553;48.412;9.514;2023-06-04T02:17:54;3.20;;;2.90;;
12976;SDS011;6553;48.412;9.514;2023-06-04T02:20:27;3.03;;;2.75;;
12976;SDS011;6553;48.412;9.514;2023-06-04T02:22:56;3.17;;;2.70;;
12976;SDS011;6553;48.412;9.514;2023-06-04T02:25:25;3.28;;;3.03;;
12976;SDS011;6553;48.412;9.514;2023-06-04T02:27:50;2.90;;;2.70;;
12976;SDS011;6553;48.412;9.514;2023-06-04T02:30:16;4.22;;;2.92;;
12976;SDS011;6553;48.412;9.514;2023-06-04T02:32:42;2.60;;;2.40;;
12976;SDS011;6553;48.412;9.514;2023-06-04T02:35:09;2.90;;;2.70;;
12976;SDS011;6553;48.412;9.514;2023-06-04T02:37:36;2.70;;;2.50;;
12976;SDS011;6553;48.412;9.514;2023-06-04T02:40:01;3.00;;;2.70;;
12976;SDS011;6553;48.412;9.514;2023-06-04T02:42:29;2.90;;;2.70;;
12976;SDS011;6553;48.412;9.514;2023-06-04T02:44:54;3.13;;;2.83;;
12976;SDS011;6553;48.412;9.514;2023-06-04T02:47:20;3.50;;;3.20;;
12976;SDS011;6553;48.412;9.514;2023-06-04T02:49:46;3.42;;;2.75;;
12976;SDS011;6553;48.412;9.514;2023-06-04T02:52:11;3.08;;;2.88;;
12976;SDS011;6553;48.412;9.514;2023-06-04T02:54:37;3.10;;;2.80;;
12976;SDS011;6553;48.412;9.514;2023-06-04T02:57:03;3.13;;;2.92;;
12976;SDS011;6553;48.412;9.514;2023-06-04T02:59:31;2.75;;;2.55;;
12976;SDS011;6553;48.412;9.514;2023-06-04T03:01:57;2.88;;;2.67;;
12976;SDS011;6553;48.412;9.514;2023-06-04T03:04:22;2.78;;;2.60;;
12976;SDS011;6553;48.412;9.514;2023-06-04T03:06:48;2.72;;;2.53;;
12976;SDS011;6553;48.412;9.514;2023-06-04T03:09:23;2.80;;;2.60;;
12976;SDS011;6553;48.412;9.514;2023-06-04T03:11:48;3.42;;;2.60;;
12976;SDS011;6553;48.412;9.514;2023-06-04T03:14:14;3.00;;;2.80;;
12976;SDS011;6553;48.412;9.514;2023-06-04T03:16:41;2.75;;;2.50;;
12976;SDS011;6553;48.412;9.514;2023-06-04T03:19:07;2.72;;;2.53;;
12976;SDS011;6553;48.412;9.514;2023-06-04T03:21:33;2.72;;;2.53;;
12976;SDS011;6553;48.412;9.514;2023-06-04T03:23:59;2.50;;;2.35;;
12976;SDS011;6553;48.412;9.514;2023-06-04T03:26:25;2.55;;;2.35;;
12976;SDS011;6553;48.412;9.514;2023-06-04T03:28:52;2.60;;;2.40;;
12976;SDS011;6553;48.412;9.514;2023-06-04T03:31:19;2.72;;;2.53;;
12976;SDS011;6553;48.412;9.514;2023-06-04T03:33:45;3.08;;;2.85;;
12976;SDS011;6553;48.412;9.514;2023-06-04T03:36:11;2.40;;;2.20;;
12976;SDS011;6553;48.412;9.514;2023-06-04T03:38:38;2.70;;;2.50;;
12976;SDS011;6553;48.412;9.514;2023-06-04T03:41:04;2.40;;;2.20;;
12976;SDS011;6553;48.412;9.514;2023-06-04T03:43:30;2.28;;;2.08;;
12976;SDS011;6553;48.412;9.514;2023-06-04T03:46:00;3.00;;;2.70;;
12976;SDS011;6553;48.412;9.514;2023-06-04T03:48:25;2.58;;;2.38;;
12976;SDS011;6553;48.412;9.514;2023-06-04T03:50:51;2.80;;;2.60;;
12976;SDS011;6553;48.412;9.514;2023-06-04T03:53:17;2.50;;;2.30;;
12976;SDS011;6553;48.412;9.514;2023-06-04T03:55:43;2.97;;;2.75;;
12976;SDS011;6553;48.412;9.514;2023-06-04T03:58:09;2.45;;;2.22;;
12976;SDS011;6553;48.412;9.514;2023-06-04T04:00:38;2.55;;;2.35;;
12976;SDS011;6553;48.412;9.514;2023-06-04T04:03:05;2.80;;;2.60;;
12976;SDS011;6553;48.412;9.514;2023-06-04T04:05:35;2.20;;;2.10;;
12976;SDS011;6553;48.412;9.514;2023-06-04T04:08:02;2.92;;;2.67;;
12976;SDS011;6553;48.412;9.514;2023-06-04T04:10:31;2.15;;;2.05;;
12976;SDS011;6553;48.412;9.514;2023-06-04T04:12:57;2.50;;;2.30;;
12976;SDS011;6553;48.412;9.514;2023-06-04T04:15:24;2.60;;;2.40;;
12976;SDS011;6553;48.412;9.514;2023-06-04T04:17:51;2.65;;;2.33;;
12976;SDS011;6553;48.412;9.514;2023-06-04T04:20:18;2.50;;;2.30;;
12976;SDS011;6553;48.412;9.514;2023-06-04T04:22:49;2.50;;;2.30;;
12976;SDS011;6553;48.412;9.514;2023-06-04T04:25:16;2.55;;;2.35;;
12976;SDS011;6553;48.412;9.514;2023-06-04T04:27:42;2.80;;;2.60;;
12976;SDS011;6553;48.412;9.514;2023-06-04T04:30:11;2.47;;;2.28;;
12976;SDS011;6553;48.412;9.514;2023-06-04T04:32:41;2.50;;;2.22;;
12976;SDS011;6553;48.412;9.514;2023-06-04T04:35:14;2.72;;;2.38;;
12976;SDS011;6553;48.412;9.514;2023-06-04T04:37:44;2.20;;;2.10;;
12976;SDS011;6553;48.412;9.514;2023-06-04T04:40:10;2.70;;;2.50;;
12976;SDS011;6553;48.412;9.514;2023-06-04T04:42:41;2.38;;;2.17;;
12976;SDS011;6553;48.412;9.514;2023-06-04T04:45:09;2.45;;;2.03;;
12976;SDS011;6553;48.412;9.514;2023-06-04T04:47:36;2.42;;;2.20;;
12976;SDS011;6553;48.412;9.514;2023-06-04T04:50:03;2.90;;;2.45;;
12976;SDS011;6553;48.412;9.514;2023-06-04T04:52:30;2.17;;;2.05;;
12976;SDS011;6553;48.412;9.514;2023-06-04T04:54:56;2.67;;;2.47;;
12976;SDS011;6553;48.412;9.514;2023-06-04T04:57:25;2.40;;;2.20;;
12976;SDS011;6553;48.412;9.514;2023-06-04T04:59:52;2.60;;;2.40;;
12976;SDS011;6553;48.412;9.514;2023-06-04T05:02:18;2.20;;;2.00;;
12976;SDS011;6553;48.412;9.514;2023-06-04T05:04:45;2.50;;;2.30;;
12976;SDS011;6553;48.412;9.514;2023-06-04T05:07:13;2.70;;;2.30;;
12976;SDS011;6553;48.412;9.514;2023-06-04T05:09:39;5.00;;;2.20;;
12976;SDS011;6553;48.412;9.514;2023-06-04T05:12:06;2.40;;;2.20;;
12976;SDS011;6553;48.412;9.514;2023-06-04T05:14:32;2.13;;;2.03;;
12976;SDS011;6553;48.412;9.514;2023-06-04T05:17:01;2.00;;;1.90;;
12976;SDS011;6553;48.412;9.514;2023-06-04T05:19:32;2.20;;;2.10;;
12976;SDS011;6553;48.412;9.514;2023-06-04T05:21:59;2.50;;;2.30;;
12976;SDS011;6553;48.412;9.514;2023-06-04T05:24:26;2.40;;;2.20;;
12976;SDS011;6553;48.412;9.514;2023-06-04T05:26:52;2.30;;;2.17;;
12976;SDS011;6553;48.412;9.514;2023-06-04T05:29:20;2.63;;;2.25;;
12976;SDS011;6553;48.412;9.514;2023-06-04T05:31:47;2.75;;;2.22;;
12976;SDS011;6553;48.412;9.514;2023-06-04T05:34:16;2.50;;;2.30;;
12976;SDS011;6553;48.412;9.514;2023-06-04T05:36:45;2.20;;;2.05;;
12976;SDS011;6553;48.412;9.514;2023-06-04T05:39:11;2.58;;;2.00;;
12976;SDS011;6553;48.412;9.514;2023-06-04T05:41:45;2.30;;;2.10;;
12976;SDS011;6553;48.412;9.514;2023-06-04T05:44:12;2.47;;;2.28;;
12976;SDS011;6553;48.412;9.514;2023-06-04T05:46:38;2.25;;;2.05;;
12976;SDS011;6553;48.412;9.514;2023-06-04T05:49:05;2.47;;;2.03;;
12976;SDS011;6553;48.412;9.514;2023-06-04T05:51:31;2.38;;;2.17;;
12976;SDS011;6553;48.412;9.514;2023-06-04T05:53:57;2.28;;;2.08;;
12976;SDS011;6553;48.412;9.514;2023-06-04T05:56:22;2.45;;;2.25;;
12976;SDS011;6553;48.412;9.514;2023-06-04T05:58:52;2.47;;;2.28;;
12976;SDS011;6553;48.412;9.514;2023-06-04T06:01:19;2.05;;;1.95;;
12976;SDS011;6553;48.412;9.514;2023-06-04T06:03:46;2.55;;;2.35;;
12976;SDS011;6553;48.412;9.514;2023-06-04T06:06:12;2.03;;;1.92;;
12976;SDS011;6553;48.412;9.514;2023-06-04T06:08:38;2.30;;;2.10;;
12976;SDS011;6553;48.412;9.514;2023-06-04T06:11:04;2.13;;;2.03;;
12976;SDS011;6553;48.412;9.514;2023-06-04T06:13:30;2.40;;;2.20;;
12976;SDS011;6553;48.412;9.514;2023-06-04T06:15:56;2.13;;;2.03;;
12976;SDS011;6553;48.412;9.514;2023-06-04T06:18:24;2.53;;;2.30;;
12976;SDS011;6553;48.412;9.514;2023-06-04T06:20:49;2.30;;;2.20;;
12976;SDS011;6553;48.412;9.514;2023-06-04T06:23:15;2.42;;;2.20;;
12976;SDS011;6553;48.412;9.514;2023-06-04T06:25:44;2.50;;;2.30;;
12976;SDS011;6553;48.412;9.514;2023-06-04T06:28:16;2.67;;;2.45;;
12976;SDS011;6553;48.412;9.514;2023-06-04T06:30:43;2.20;;;2.10;;
12976;SDS011;6553;48.412;9.514;2023-06-04T06:33:09;2.45;;;2.03;;
12976;SDS011;6553;48.412;9.514;2023-06-04T06:35:35;2.55;;;2.10;;
12976;SDS011;6553;48.412;9.514;2023-06-04T06:38:01;2.00;;;1.90;;
12976;SDS011;6553;48.412;9.514;2023-06-04T06:40:27;2.25;;;2.05;;
12976;SDS011;6553;48.412;9.514;2023-06-04T06:42:55;2.78;;;2.05;;
12976;SDS011;6553;48.412;9.514;2023-06-04T06:45:21;2.10;;;2.00;;
12976;SDS011;6553;48.412;9.514;2023-06-04T06:47:47;2.22;;;1.92;;
12976;SDS011;6553;48.412;9.514;2023-06-04T06:50:13;2.20;;;2.00;;
12976;SDS011;6553;48.412;9.514;2023-06-04T06:52:39;2.30;;;2.20;;
12976;SDS011;6553;48.412;9.514;2023-06-04T06:55:05;2.00;;;1.90;;
12976;SDS011;6553;48.412;9.514;2023-06-04T06:57:32;2.10;;;2.00;;
12976;SDS011;6553;48.412;9.514;2023-06-04T06:59:58;2.35;;;2.15;;
12976;SDS011;6553;48.412;9.514;2023-06-04T07:02:24;2.50;;;2.28;;
12976;SDS011;6553;48.412;9.514;2023-06-04T07:04:50;1.90;;;1.80;;
12976;SDS011;6553;48.412;9.514;2023-06-04T07:07:16;2.50;;;2.20;;
12976;SDS011;6553;48.412;9.514;2023-06-04T07:09:42;1.85;;;1.75;;
12976;SDS011;6553;48.412;9.514;2023-06-04T07:12:08;2.42;;;2.22;;
12976;SDS011;6553;48.412;9.514;2023-06-04T07:14:33;2.08;;;1.98;;
12976;SDS011;6553;48.412;9.514;2023-06-04T07:16:59;2.85;;;2.60;;
12976;SDS011;6553;48.412;9.514;2023-06-04T07:19:25;2.20;;;2.05;;
12976;SDS011;6553;48.412;9.514;2023-06-04T07:21:53;1.98;;;1.88;;
12976;SDS011;6553;48.412;9.514;2023-06-04T07:24:20;2.42;;;2.22;;
12976;SDS011;6553;48.412;9.514;2023-06-04T07:26:47;2.40;;;2.20;;
12976;SDS011;6553;48.412;9.514;2023-06-04T07:29:13;2.22;;;2.03;;
12976;SDS011;6553;48.412;9.514;2023-06-04T07:31:39;2.85;;;2.10;;
12976;SDS011;6553;48.412;9.514;2023-06-04T07:34:06;2.38;;;2.17;;
12976;SDS011;6553;48.412;9.514;2023-06-04T07:36:32;2.38;;;2.17;;
12976;SDS011;6553;48.412;9.514;2023-06-04T07:38:58;2.40;;;2.20;;
12976;SDS011;6553;48.412;9.514;2023-06-04T07:41:25;2.10;;;2.00;;
12976;SDS011;6553;48.412;9.514;2023-06-04T07:43:53;2.42;;;2.22;;
12976;SDS011;6553;48.412;9.514;2023-06-04T07:46:19;2.05;;;1.95;;
12976;SDS011;6553;48.412;9.514;2023-06-04T07:48:45;2.45;;;2.28;;
12976;SDS011;6553;48.412;9.514;2023-06-04T07:51:12;1.92;;;1.83;;
12976;SDS011;6553;48.412;9.514;2023-06-04T07:53:39;2.40;;;2.20;;
12976;SDS011;6553;48.412;9.514;2023-06-04T07:56:05;2.30;;;2.10;;
12976;SDS011;6553;48.412;9.514;2023-06-04T07:58:31;2.75;;;2.40;;
12976;SDS011;6553;48.412;9.514;2023-06-04T08:00:57;3.40;;;2.25;;
12976;SDS011;6553;48.412;9.514;2023-06-04T08:03:22;3.40;;;2.30;;
12976;SDS011;6553;48.412;9.514;2023-06-04T08:05:49;2.30;;;2.10;;
12976;SDS011;6553;48.412;9.514;2023-06-04T08:08:15;2.47;;;2.28;;
12976;SDS011;6553;48.412;9.514;2023-06-04T08:10:41;2.15;;;2.05;;
12976;SDS011;6553;48.412;9.514;2023-06-04T08:13:07;2.33;;;2.20;;
12976;SDS011;6553;48.412;9.514;2023-06-04T08:15:36;2.10;;;2.00;;
12976;SDS011;6553;48.412;9.514;2023-06-04T08:18:02;2.40;;;2.25;;
12976;SDS011;6553;48.412;9.514;2023-06-04T08:20:28;2.60;;;2.40;;
12976;SDS011;6553;48.412;9.514;2023-06-04T08:22:53;2.63;;;2.42;;
12976;SDS011;6553;48.412;9.514;2023-06-04T08:25:19;2.70;;;2.03;;
12976;SDS011;6553;48.412;9.514;2023-06-04T08:27:45;3.00;;;2.70;;
12976;SDS011;6553;48.412;9.514;2023-06-04T08:30:11;2.45;;;2.25;;
12976;SDS011;6553;48.412;9.514;2023-06-04T08:32:37;2.42;;;2.22;;
12976;SDS011;6553;48.412;9.514;2023-06-04T08:35:02;2.80;;;2.60;;
12976;SDS011;6553;48.412;9.514;2023-06-04T08:37:30;2.50;;;2.30;;
12976;SDS011;6553;48.412;9.514;2023-06-04T08:39:55;2.88;;;2.67;;
12976;SDS011;6553;48.412;9.514;2023-06-04T08:42:28;2.20;;;2.10;;
12976;SDS011;6553;48.412;9.514;2023-06-04T08:44:59;3.20;;;2.30;;
12976;SDS011;6553;48.412;9.514;2023-06-04T08:47:26;2.33;;;2.13;;
12976;SDS011;6553;48.412;9.514;2023-06-04T08:49:55;2.47;;;2.28;;
12976;SDS011;6553;48.412;9.514;2023-06-04T08:52:25;2.80;;;2.60;;
12976;SDS011;6553;48.412;9.514;2023-06-04T08:54:53;2.22;;;2.03;;
12976;SDS011;6553;48.412;9.514;2023-06-04T08:57:20;2.47;;;2.28;;
12976;SDS011;6553;48.412;9.514;2023-06-04T08:59:46;3.17;;;2.30;;
12976;SDS011;6553;48.412;9.514;2023-06-04T09:02:13;3.00;;;2.60;;
12976;SDS011;6553;48.412;9.514;2023-06-04T09:04:40;2.55;;;2.35;;
12976;SDS011;6553;48.412;9.514;2023-06-04T09:07:07;2.53;;;2.33;;
12976;SDS011;6553;48.412;9.514;2023-06-04T09:09:39;2.83;;;2.50;;
12976;SDS011;6553;48.412;9.514;2023-06-04T09:12:10;2.33;;;2.13;;
12976;SDS011;6553;48.412;9.514;2023-06-04T09:14:42;2.45;;;2.25;;
12976;SDS011;6553;48.412;9.514;2023-06-04T09:17:07;2.70;;;2.33;;
12976;SDS011;6553;48.412;9.514;2023-06-04T09:19:33;3.13;;;2.83;;
12976;SDS011;6553;48.412;9.514;2023-06-04T09:22:00;3.10;;;2.42;;
12976;SDS011;6553;48.412;9.514;2023-06-04T09:24:39;3.10;;;2.90;;
12976;SDS011;6553;48.412;9.514;2023-06-04T09:27:11;2.92;;;2.70;;
12976;SDS011;6553;48.412;9.514;2023-06-04T09:29:39;2.53;;;2.33;;
12976;SDS011;6553;48.412;9.514;2023-06-04T09:32:20;2.05;;;1.95;;
12976;SDS011;6553;48.412;9.514;2023-06-04T09:37:39;2.78;;;2.58;;
12976;SDS011;6553;48.412;9.514;2023-06-04T09:40:07;2.70;;;2.50;;
12976;SDS011;6553;48.412;9.514;2023-06-04T09:42:43;2.88;;;2.58;;
12976;SDS011;6553;48.412;9.514;2023-06-04T09:45:11;2.85;;;2.60;;
12976;SDS011;6553;48.412;9.514;2023-06-04T09:47:40;2.50;;;2.30;;
12976;SDS011;6553;48.412;9.514;2023-06-04T09:50:08;2.95;;;2.75;;
12976;SDS011;6553;48.412;9.514;2023-06-04T09:52:36;2.75;;;2.55;;
12976;SDS011;6553;48.412;9.514;2023-06-04T09:55:02;2.90;;;2.60;;
12976;SDS011;6553;48.412;9.514;2023-06-04T09:57:29;2.60;;;2.40;;
12976;SDS011;6553;48.412;9.514;2023-06-04T09:59:57;3.70;;;3.03;;
12976;SDS011;6553;48.412;9.514;2023-06-04T10:02:24;3.13;;;2.83;;
12976;SDS011;6553;48.412;9.514;2023-06-04T10:04:55;3.15;;;2.42;;
12976;SDS011;6553;48.412;9.514;2023-06-04T10:07:24;2.83;;;2.63;;
12976;SDS011;6553;48.412;9.514;2023-06-04T10:09:51;2.80;;;2.60;;
12976;SDS011;6553;48.412;9.514;2023-06-04T10:12:20;2.95;;;2.75;;
12976;SDS011;6553;48.412;9.514;2023-06-04T10:14:56;2.80;;;2.60;;
12976;SDS011;6553;48.412;9.514;2023-06-04T10:17:26;2.50;;;2.30;;
12976;SDS011;6553;48.412;9.514;2023-06-04T10:19:55;2.85;;;2.65;;
12976;SDS011;6553;48.412;9.514;2023-06-04T10:22:23;2.90;;;2.70;;
12976;SDS011;6553;48.412;9.514;2023-06-04T10:24:49;2.95;;;2.72;;
12976;SDS011;6553;48.412;9.514;2023-06-04T10:27:19;3.72;;;2.97;;
12976;SDS011;6553;48.412;9.514;2023-06-04T10:29:45;2.80;;;2.50;;
12976;SDS011;6553;48.412;9.514;2023-06-04T10:32:11;4.18;;;2.65;;
12976;SDS011;6553;48.412;9.514;2023-06-04T10:34:38;6.45;;;3.05;;
12976;SDS011;6553;48.412;9.514;2023-06-04T10:37:04;3.40;;;3.10;;
12976;SDS011;6553;48.412;9.514;2023-06-04T10:39:30;2.92;;;2.67;;
12976;SDS011;6553;48.412;9.514;2023-06-04T10:42:04;2.90;;;2.70;;
12976;SDS011;6553;48.412;9.514;2023-06-04T10:44:31;2.88;;;2.67;;
12976;SDS011;6553;48.412;9.514;2023-06-04T10:47:20;3.33;;;3.03;;
12976;SDS011;6553;48.412;9.514;2023-06-04T10:49:50;3.03;;;2.72;;
12976;SDS011;6553;48.412;9.514;2023-06-04T10:52:17;2.63;;;2.42;;
12976;SDS011;6553;48.412;9.514;2023-06-04T10:54:44;3.20;;;2.90;;
12976;SDS011;6553;48.412;9.514;2023-06-04T10:57:17;2.92;;;2.50;;
12976;SDS011;6553;48.412;9.514;2023-06-04T10:59:59;2.90;;;2.70;;
12976;SDS011;6553;48.412;9.514;2023-06-04T11:02:30;3.83;;;2.90;;
12976;SDS011;6553;48.412;9.514;2023-06-04T11:05:00;2.92;;;2.63;;
12976;SDS011;6553;48.412;9.514;2023-06-04T11:07:40;3.03;;;2.70;;
12976;SDS011;6553;48.412;9.514;2023-06-04T11:10:15;3.33;;;3.03;;
12976;SDS011;6553;48.412;9.514;2023-06-04T11:15:13;3.25;;;2.97;;
12976;SDS011;6553;48.412;9.514;2023-06-04T11:17:49;3.22;;;2.95;;
12976;SDS011;6553;48.412;9.514;2023-06-04T11:20:19;2.78;;;2.58;;
12976;SDS011;6553;48.412;9.514;2023-06-04T11:23:05;3.63;;;2.80;;
12976;SDS011;6553;48.412;9.514;2023-06-04T11:25:31;2.80;;;2.60;;
12976;SDS011;6553;48.412;9.514;2023-06-04T11:27:58;3.30;;;3.00;;
12976;SDS011;6553;48.412;9.514;2023-06-04T11:30:26;3.95;;;3.33;;
12976;SDS011;6553;48.412;9.514;2023-06-04T11:32:59;3.35;;;2.97;;
12976;SDS011;6553;48.412;9.514;2023-06-04T11:35:30;3.97;;;3.20;;
12976;SDS011;6553;48.412;9.514;2023-06-04T11:38:04;3.70;;;3.40;;
12976;SDS011;6553;48.412;9.514;2023-06-04T11:40:30;3.60;;;3.30;;
12976;SDS011;6553;48.412;9.514;2023-06-04T11:42:56;3.05;;;2.85;;
12976;SDS011;6553;48.412;9.514;2023-06-04T11:45:22;3.63;;;3.33;;
12976;SDS011;6553;48.412;9.514;2023-06-04T11:47:54;2.97;;;2.78;;
12976;SDS011;6553;48.412;9.514;2023-06-04T11:50:22;3.03;;;2.83;;
12976;SDS011;6553;48.412;9.514;2023-06-04T11:52:52;3.33;;;3.03;;
12976;SDS011;6553;48.412;9.514;2023-06-04T11:55:18;3.53;;;3.10;;
12976;SDS011;6553;48.412;9.514;2023-06-04T11:57:48;3.38;;;3.10;;
12976;SDS011;6553;48.412;9.514;2023-06-04T12:00:15;4.53;;;2.92;;
12976;SDS011;6553;48.412;9.514;2023-06-04T12:02:53;3.95;;;3.28;;
12976;SDS011;6553;48.412;9.514;2023-06-04T12:05:30;3.60;;;3.30;;
12976;SDS011;6553;48.412;9.514;2023-06-04T12:08:04;3.20;;;3.00;;
12976;SDS011;6553;48.412;9.514;2023-06-04T12:10:36;3.80;;;3.42;;
12976;SDS011;6553;48.412;9.514;2023-06-04T12:13:07;3.97;;;3.67;;
12976;SDS011;6553;48.412;9.514;2023-06-04T12:15:34;3.22;;;3.03;;
12976;SDS011;6553;48.412;9.514;2023-06-04T12:18:00;3.70;;;3.40;;
12976;SDS011;6553;48.412;9.514;2023-06-04T12:23:07;3.50;;;3.20;;
12976;SDS011;6553;48.412;9.514;2023-06-04T12:25:33;3.83;;;3.10;;
12976;SDS011;6553;48.412;9.514;2023-06-04T12:28:00;3.28;;;2.97;;
12976;SDS011;6553;48.412;9.514;2023-06-04T12:30:37;3.50;;;3.20;;
12976;SDS011;6553;48.412;9.514;2023-06-04T12:33:05;4.00;;;3.60;;
12976;SDS011;6553;48.412;9.514;2023-06-04T12:35:31;3.60;;;3.30;;
12976;SDS011;6553;48.412;9.514;2023-06-04T12:37:56;4.18;;;3.72;;
12976;SDS011;6553;48.412;9.514;2023-06-04T12:40:22;3.80;;;3.40;;
12976;SDS011;6553;48.412;9.514;2023-06-04T12:42:51;4.80;;;3.50;;
12976;SDS011;6553;48.412;9.514;2023-06-04T12:45:17;3.83;;;3.53;;
12976;SDS011;6553;48.412;9.514;2023-06-04T12:47:43;4.10;;;3.63;;
12976;SDS011;6553;48.412;9.514;2023-06-04T12:50:09;3.75;;;3.45;;
12976;SDS011;6553;48.412;9.514;2023-06-04T12:52:35;3.90;;;3.60;;
12976;SDS011;6553;48.412;9.514;2023-06-04T12:55:01;3.85;;;3.45;;
12976;SDS011;6553;48.412;9.514;2023-06-04T12:57:26;4.32;;;3.63;;
12976;SDS011;6553;48.412;9.514;2023-06-04T12:59:52;3.65;;;3.35;;
12976;SDS011;6553;48.412;9.514;2023-06-04T13:02:18;3.78;;;3.47;;
12976;SDS011;6553;48.412;9.514;2023-06-04T13:04:44;4.35;;;3.95;;
12976;SDS011;6553;48.412;9.514;2023-06-04T13:07:11;5.15;;;3.65;;
12976;SDS011;6553;48.412;9.514;2023-06-04T13:09:37;3.90;;;3.35;;
12976;SDS011;6553;48.412;9.514;2023-06-04T13:12:03;3.80;;;3.50;;
12976;SDS011;6553;48.412;9.514;2023-06-04T13:14:31;4.18;;;3.75;;
12976;SDS011;6553;48.412;9.514;2023-06-04T13:16:58;3.58;;;3.28;;
12976;SDS011;6553;48.412;9.514;2023-06-04T13:19:25;3.88;;;3.40;;
12976;SDS011;6553;48.412;9.514;2023-06-04T13:21:51;4.03;;;3.58;;
12976;SDS011;6553;48.412;9.514;2023-06-04T13:24:16;3.67;;;3.38;;
12976;SDS011;6553;48.412;9.514;2023-06-04T13:26:42;3.80;;;3.50;;
12976;SDS011;6553;48.412;9.514;2023-06-04T13:29:08;4.18;;;3.78;;
12976;SDS011;6553;48.412;9.514;2023-06-04T13:31:34;3.35;;;3.08;;
12976;SDS011;6553;48.412;9.514;2023-06-04T13:34:00;3.50;;;3.20;;
12976;SDS011;6553;48.412;9.514;2023-06-04T13:36:26;4.00;;;3.70;;
12976;SDS011;6553;48.412;9.514;2023-06-04T13:38:52;4.28;;;3.88;;
12976;SDS011;6553;48.412;9.514;2023-06-04T13:41:20;4.35;;;3.58;;
12976;SDS011;6553;48.412;9.514;2023-06-04T13:43:46;4.03;;;3.65;;
12976;SDS011;6553;48.412;9.514;2023-06-04T13:46:12;4.55;;;4.15;;
12976;SDS011;6553;48.412;9.514;2023-06-04T13:48:37;4.15;;;3.75;;
12976;SDS011;6553;48.412;9.514;2023-06-04T13:51:03;4.45;;;4.05;;
12976;SDS011;6553;48.412;9.514;2023-06-04T13:53:29;4.40;;;4.00;;
12976;SDS011;6553;48.412;9.514;2023-06-04T13:55:55;6.30;;;4.78;;
12976;SDS011;6553;48.412;9.514;2023-06-04T13:58:27;4.70;;;4.28;;
12976;SDS011;6553;48.412;9.514;2023-06-04T14:00:57;4.80;;;4.32;;
12976;SDS011;6553;48.412;9.514;2023-06-04T14:03:22;5.10;;;4.60;;
12976;SDS011;6553;48.412;9.514;2023-06-04T14:05:48;4.88;;;4.45;;
12976;SDS011;6553;48.412;9.514;2023-06-04T14:08:14;5.07;;;4.57;;
12976;SDS011;6553;48.412;9.514;2023-06-04T14:10:40;5.82;;;4.65;;
12976;SDS011;6553;48.412;9.514;2023-06-04T14:13:06;5.15;;;4.65;;
12976;SDS011;6553;48.412;9.514;2023-06-04T14:15:33;5.28;;;4.78;;
12976;SDS011;6553;48.412;9.514;2023-06-04T14:17:59;5.13;;;4.63;;
12976;SDS011;6553;48.412;9.514;2023-06-04T14:20:26;5.00;;;4.50;;
12976;SDS011;6553;48.412;9.514;2023-06-04T14:22:51;6.85;;;5.07;;
12976;SDS011;6553;48.412;9.514;2023-06-04T14:25:17;5.38;;;4.30;;
12976;SDS011;6553;48.412;9.514;2023-06-04T14:27:43;5.88;;;4.97;;
12976;SDS011;6553;48.412;9.514;2023-06-04T14:30:09;5.60;;;5.10;;
12976;SDS011;6553;48.412;9.514;2023-06-04T14:32:35;6.20;;;4.90;;
12976;SDS011;6553;48.412;9.514;2023-06-04T14:35:01;4.95;;;4.55;;
12976;SDS011;6553;48.412;9.514;2023-06-04T14:37:27;6.03;;;5.18;;
12976;SDS011;6553;48.412;9.514;2023-06-04T14:39:53;6.00;;;5.38;;
12976;SDS011;6553;48.412;9.514;2023-06-04T14:42:18;6.03;;;5.43;;
12976;SDS011;6553;48.412;9.514;2023-06-04T14:44:45;5.65;;;5.15;;
12976;SDS011;6553;48.412;9.514;2023-06-04T14:47:11;6.03;;;5.30;;
12976;SDS011;6553;48.412;9.514;2023-06-04T14:49:37;6.18;;;5.60;;
12976;SDS011;6553;48.412;9.514;2023-06-04T14:52:03;6.15;;;5.20;;
12976;SDS011;6553;48.412;9.514;2023-06-04T14:54:29;5.80;;;5.20;;
12976;SDS011;6553;48.412;9.514;2023-06-04T14:56:54;5.75;;;5.10;;
12976;SDS011;6553;48.412;9.514;2023-06-04T14:59:20;6.45;;;5.38;;
12976;SDS011;6553;48.412;9.514;2023-06-04T15:01:49;5.45;;;4.90;;
12976;SDS011;6553;48.412;9.514;2023-06-04T15:04:15;5.65;;;4.72;;
12976;SDS011;6553;48.412;9.514;2023-06-04T15:06:40;6.35;;;5.50;;
12976;SDS011;6553;48.412;9.514;2023-06-04T15:09:06;6.07;;;5.05;;
12976;SDS011;6553;48.412;9.514;2023-06-04T15:11:32;5.88;;;5.28;;
12976;SDS011;6553;48.412;9.514;2023-06-04T15:13:58;5.72;;;5.13;;
12976;SDS011;6553;48.412;9.514;2023-06-04T15:16:23;5.65;;;5.00;;